X  SluitMETAR luchtvaart weer gegevens      EBBR Brussels Airport

Temperatuur

10°C Temperatuur

8°C Dauwpunt

88% Vochtigheid



Wind

13 KM/U

 8 MPH

 4 M/S

 7 KTS



200°
Zuid Zuid
West
Huidig weer

Helder Helder
Luchtdruk 1020.92 (hPa) - 30.15 (in)
Zicht 6.2 (mi) - 10 (km)
Vliegveld
Vliegveld code EBBR

Locatie Brussels Airport 10 (km)

Metar:
EBBR 230350Z 20007KT CAVOK 10/08 Q1021 NOSIG

Tijd: 23-09-2021 05:50